sensor_id;sensor_type;location;lat;lon;timestamp;pressure;altitude;pressure_sealevel;temperature;humidity
80294;BME280;69594;43.516;1.498;2023-08-08T00:00:13;76396.56;;;-143.46;nan
80294;BME280;69594;43.516;1.498;2023-08-08T00:02:39;76607.16;;;-143.46;nan
80294;BME280;69594;43.516;1.498;2023-08-08T00:05:05;100045.34;;;18.98;nan
80294;BME280;69594;43.516;1.498;2023-08-08T00:07:34;100055.56;;;18.98;nan
80294;BME280;69594;43.516;1.498;2023-08-08T00:09:59;76527.88;;;-143.46;nan
80294;BME280;69594;43.516;1.498;2023-08-08T00:12:24;76611.34;;;-143.46;nan
80294;BME280;69594;43.516;1.498;2023-08-08T00:14:50;100051.44;;;-144.75;nan
80294;BME280;69594;43.516;1.498;2023-08-08T00:17:15;100051.91;;;18.94;nan
80294;BME280;69594;43.516;1.498;2023-08-08T00:19:41;100060.81;;;-144.75;nan
80294;BME280;69594;43.516;1.498;2023-08-08T00:22:06;76396.56;;;-144.76;nan
80294;BME280;69594;43.516;1.498;2023-08-08T00:24:32;76636.38;;;-143.46;nan
80294;BME280;69594;43.516;1.498;2023-08-08T00:26:59;100062.75;;;-144.75;nan
80294;BME280;69594;43.516;1.498;2023-08-08T00:29:24;76521.63;;;-143.46;nan
80294;BME280;69594;43.516;1.498;2023-08-08T00:31:49;76525.78;;;-143.46;nan
80294;BME280;69594;43.516;1.498;2023-08-08T00:34:15;100058.31;;;18.82;nan
80294;BME280;69594;43.516;1.498;2023-08-08T00:36:40;100134.03;;;-143.46;nan
80294;BME280;69594;43.516;1.498;2023-08-08T00:39:05;100082.81;;;-143.46;nan
80294;BME280;69594;43.516;1.498;2023-08-08T00:41:32;76416.53;;;-143.46;nan
80294;BME280;69594;43.516;1.498;2023-08-08T00:43:58;100043.97;;;-143.46;nan
80294;BME280;69594;43.516;1.498;2023-08-08T00:46:23;100061.88;;;-143.46;nan
80294;BME280;69594;43.516;1.498;2023-08-08T00:48:51;76399.88;;;-143.46;nan
80294;BME280;69594;43.516;1.498;2023-08-08T00:51:17;76523.72;;;-143.46;nan
80294;BME280;69594;43.516;1.498;2023-08-08T00:53:44;76603.00;;;-143.46;nan
80294;BME280;69594;43.516;1.498;2023-08-08T00:56:12;100021.25;;;-143.46;nan
80294;BME280;69594;43.516;1.498;2023-08-08T00:58:39;100075.78;;;-143.46;nan
80294;BME280;69594;43.516;1.498;2023-08-08T01:01:05;100018.28;;;-143.46;nan
80294;BME280;69594;43.516;1.498;2023-08-08T01:03:30;100022.09;;;18.56;nan
80294;BME280;69594;43.516;1.498;2023-08-08T01:09:04;76565.44;;;-143.46;nan
80294;BME280;69594;43.516;1.498;2023-08-08T01:11:34;76396.56;;;-143.46;nan
80294;BME280;69594;43.516;1.498;2023-08-08T01:14:02;76396.56;;;-143.46;nan
80294;BME280;69594;43.516;1.498;2023-08-08T01:16:29;100012.72;;;-143.46;nan
80294;BME280;69594;43.516;1.498;2023-08-08T01:18:55;76586.31;;;-143.46;nan
80294;BME280;69594;43.516;1.498;2023-08-08T01:21:23;100026.69;;;18.36;nan
80294;BME280;69594;43.516;1.498;2023-08-08T01:23:56;76396.56;;;-143.46;nan
80294;BME280;69594;43.516;1.498;2023-08-08T01:26:22;76611.34;;;-143.46;nan
80294;BME280;69594;43.516;1.498;2023-08-08T01:28:52;76636.38;;;-143.46;nan
80294;BME280;69594;43.516;1.498;2023-08-08T01:31:18;100048.25;;;18.18;nan
80294;BME280;69594;43.516;1.498;2023-08-08T01:36:20;100009.97;;;-143.46;nan
80294;BME280;69594;43.516;1.498;2023-08-08T01:38:48;76577.97;;;-143.46;nan
80294;BME280;69594;43.516;1.498;2023-08-08T01:41:15;76640.56;;;-143.46;nan
80294;BME280;69594;43.516;1.498;2023-08-08T01:43:41;76619.69;;;-143.46;nan
80294;BME280;69594;43.516;1.498;2023-08-08T01:46:07;100028.66;;;-143.46;nan
80294;BME280;69594;43.516;1.498;2023-08-08T01:48:33;100015.91;;;-143.46;nan
80294;BME280;69594;43.516;1.498;2023-08-08T01:50:59;100037.06;;;17.99;nan
80294;BME280;69594;43.516;1.498;2023-08-08T01:53:25;76619.69;;;-143.46;nan
80294;BME280;69594;43.516;1.498;2023-08-08T01:55:50;76653.06;;;-143.46;nan
80294;BME280;69594;43.516;1.498;2023-08-08T01:58:17;76653.06;;;-143.46;nan
80294;BME280;69594;43.516;1.498;2023-08-08T02:00:43;100058.03;;;17.88;nan
80294;BME280;69594;43.516;1.498;2023-08-08T02:03:10;100031.59;;;17.74;nan
80294;BME280;69594;43.516;1.498;2023-08-08T02:05:36;100041.94;;;-143.46;nan
80294;BME280;69594;43.516;1.498;2023-08-08T02:08:01;76678.13;;;-143.46;nan
80294;BME280;69594;43.516;1.498;2023-08-08T02:10:27;76682.28;;;-143.46;nan
80294;BME280;69594;43.516;1.498;2023-08-08T02:12:52;76669.78;;;-143.46;nan
80294;BME280;69594;43.516;1.498;2023-08-08T02:15:17;100009.91;;;-143.46;nan
80294;BME280;69594;43.516;1.498;2023-08-08T02:17:43;76661.41;;;-143.46;nan
80294;BME280;69594;43.516;1.498;2023-08-08T02:20:08;100048.94;;;-144.75;nan
80294;BME280;69594;43.516;1.498;2023-08-08T02:22:34;100050.22;;;-143.46;nan
80294;BME280;69594;43.516;1.498;2023-08-08T02:24:59;100051.94;;;-143.46;nan
80294;BME280;69594;43.516;1.498;2023-08-08T02:27:25;76642.63;;;-143.46;nan
80294;BME280;69594;43.516;1.498;2023-08-08T02:34:41;76557.88;;;-143.46;nan
80294;BME280;69594;43.516;1.498;2023-08-08T02:37:07;100071.03;;;-144.76;nan
80294;BME280;69594;43.516;1.498;2023-08-08T02:39:33;76396.56;;;-143.46;nan
80294;BME280;69594;43.516;1.498;2023-08-08T02:41:58;100028.75;;;17.46;nan
80294;BME280;69594;43.516;1.498;2023-08-08T02:44:24;76570.38;;;-143.46;nan
80294;BME280;69594;43.516;1.498;2023-08-08T02:46:49;100039.78;;;17.34;nan
80294;BME280;69594;43.516;1.498;2023-08-08T02:49:14;100094.66;;;-143.46;nan
80294;BME280;69594;43.516;1.498;2023-08-08T02:51:40;76703.16;;;-143.46;nan
80294;BME280;69594;43.516;1.498;2023-08-08T02:54:05;76732.38;;;-143.46;nan
80294;BME280;69594;43.516;1.498;2023-08-08T02:56:31;76396.56;;;-143.46;nan
80294;BME280;69594;43.516;1.498;2023-08-08T02:58:56;100070.69;;;-143.46;nan
80294;BME280;69594;43.516;1.498;2023-08-08T03:01:22;100016.41;;;-143.46;nan
80294;BME280;69594;43.516;1.498;2023-08-08T03:03:48;100095.13;;;-143.46;nan
80294;BME280;69594;43.516;1.498;2023-08-08T03:06:13;76740.72;;;-143.46;nan
80294;BME280;69594;43.516;1.498;2023-08-08T03:11:04;100058.59;;;17.08;nan
80294;BME280;69594;43.516;1.498;2023-08-08T03:13:29;100079.72;;;17.04;nan
80294;BME280;69594;43.516;1.498;2023-08-08T03:15:55;100080.28;;;17.09;nan
80294;BME280;69594;43.516;1.498;2023-08-08T03:18:22;76746.97;;;-143.46;nan
80294;BME280;69594;43.516;1.498;2023-08-08T03:20:48;100100.25;;;-143.46;nan
80294;BME280;69594;43.516;1.498;2023-08-08T03:23:13;100059.41;;;17.08;nan
80294;BME280;69594;43.516;1.498;2023-08-08T03:25:39;76713.59;;;-143.46;nan
80294;BME280;69594;43.516;1.498;2023-08-08T03:28:04;100093.69;;;-143.46;nan
80294;BME280;69594;43.516;1.498;2023-08-08T03:30:30;100062.97;;;16.97;nan
80294;BME280;69594;43.516;1.498;2023-08-08T03:32:55;76742.81;;;-143.46;nan
80294;BME280;69594;43.516;1.498;2023-08-08T03:35:20;100081.75;;;-143.46;nan
80294;BME280;69594;43.516;1.498;2023-08-08T03:37:46;100161.16;;;-143.46;nan
80294;BME280;69594;43.516;1.498;2023-08-08T03:40:11;100069.47;;;16.80;nan
80294;BME280;69594;43.516;1.498;2023-08-08T03:42:39;76396.56;;;-143.46;nan
80294;BME280;69594;43.516;1.498;2023-08-08T03:45:05;100006.53;;;-143.46;nan
80294;BME280;69594;43.516;1.498;2023-08-08T03:47:31;65804.13;;;-143.46;nan
80294;BME280;69594;43.516;1.498;2023-08-08T03:49:56;76396.56;;;-143.46;nan
80294;BME280;69594;43.516;1.498;2023-08-08T03:52:23;76396.56;;;-143.46;nan
80294;BME280;69594;43.516;1.498;2023-08-08T03:54:48;100076.00;;;16.75;nan
80294;BME280;69594;43.516;1.498;2023-08-08T03:57:14;76396.56;;;-143.46;nan
80294;BME280;69594;43.516;1.498;2023-08-08T03:59:39;76782.44;;;-143.46;nan
80294;BME280;69594;43.516;1.498;2023-08-08T04:02:05;76396.56;;;-143.46;nan
80294;BME280;69594;43.516;1.498;2023-08-08T04:09:21;52963.94;;;-143.46;nan
80294;BME280;69594;43.516;1.498;2023-08-08T04:11:46;76840.88;;;-143.46;nan
80294;BME280;69594;43.516;1.498;2023-08-08T04:14:13;100086.31;;;16.45;nan
80294;BME280;69594;43.516;1.498;2023-08-08T04:16:39;100091.00;;;-144.75;nan
80294;BME280;69594;43.516;1.498;2023-08-08T04:19:04;76840.88;;;-143.46;nan
80294;BME280;69594;43.516;1.498;2023-08-08T04:21:30;100119.44;;;16.49;nan
80294;BME280;69594;43.516;1.498;2023-08-08T04:23:58;100076.56;;;16.48;nan
80294;BME280;69594;43.516;1.498;2023-08-08T04:26:23;100090.75;;;-143.46;nan
80294;BME280;69594;43.516;1.498;2023-08-08T04:28:49;76890.94;;;-143.46;nan
80294;BME280;69594;43.516;1.498;2023-08-08T04:31:14;100099.47;;;-144.76;nan
80294;BME280;69594;43.516;1.498;2023-08-08T04:33:41;100073.56;;;16.41;nan
80294;BME280;69594;43.516;1.498;2023-08-08T04:36:07;100095.25;;;-143.46;nan
80294;BME280;69594;43.516;1.498;2023-08-08T04:38:32;76396.56;;;-143.46;nan
80294;BME280;69594;43.516;1.498;2023-08-08T04:40:58;100112.59;;;-143.46;nan
80294;BME280;69594;43.516;1.498;2023-08-08T04:45:48;76907.66;;;-143.46;nan
80294;BME280;69594;43.516;1.498;2023-08-08T04:50:39;100095.13;;;16.18;nan
80294;BME280;69594;43.516;1.498;2023-08-08T04:53:06;76874.25;;;-143.46;nan
80294;BME280;69594;43.516;1.498;2023-08-08T04:55:31;76840.88;;;-143.46;nan
80294;BME280;69594;43.516;1.498;2023-08-08T04:57:57;76907.66;;;-143.46;nan
80294;BME280;69594;43.516;1.498;2023-08-08T05:00:22;100119.44;;;-143.46;nan
80294;BME280;69594;43.516;1.498;2023-08-08T05:02:48;100084.25;;;16.21;nan
80294;BME280;69594;43.516;1.498;2023-08-08T05:07:38;52963.94;;;-143.46;nan
80294;BME280;69594;43.516;1.498;2023-08-08T05:10:04;100102.16;;;16.27;nan
80294;BME280;69594;43.516;1.498;2023-08-08T05:12:30;76396.56;;;-144.76;nan
80294;BME280;69594;43.516;1.498;2023-08-08T05:14:55;76396.56;;;-143.46;nan
80294;BME280;69594;43.516;1.498;2023-08-08T05:17:21;100137.31;;;-143.46;nan
80294;BME280;69594;43.516;1.498;2023-08-08T05:19:46;76882.59;;;-143.46;nan
80294;BME280;69594;43.516;1.498;2023-08-08T05:24:37;100109.25;;;-143.46;nan
80294;BME280;69594;43.516;1.498;2023-08-08T05:27:03;76895.13;;;-144.76;nan
80294;BME280;69594;43.516;1.498;2023-08-08T05:29:29;76855.47;;;-143.46;nan
80294;BME280;69594;43.516;1.498;2023-08-08T05:31:54;76911.81;;;-143.46;nan
80294;BME280;69594;43.516;1.498;2023-08-08T05:34:20;76757.88;;;-143.46;nan
80294;BME280;69594;43.516;1.498;2023-08-08T05:36:45;76857.56;;;-143.46;nan
80294;BME280;69594;43.516;1.498;2023-08-08T05:39:11;100120.94;;;-144.75;nan
80294;BME280;69594;43.516;1.498;2023-08-08T05:41:36;76746.69;;;-144.76;nan
80294;BME280;69594;43.516;1.498;2023-08-08T05:44:02;100129.66;;;16.27;nan
80294;BME280;69594;43.516;1.498;2023-08-08T05:46:27;76396.56;;;-143.46;nan
80294;BME280;69594;43.516;1.498;2023-08-08T05:48:53;76396.56;;;-143.46;nan
80294;BME280;69594;43.516;1.498;2023-08-08T05:51:18;76924.34;;;-143.46;nan
80294;BME280;69594;43.516;1.498;2023-08-08T05:53:43;100108.22;;;16.00;nan
80294;BME280;69594;43.516;1.498;2023-08-08T05:56:09;100127.13;;;-143.46;nan
80294;BME280;69594;43.516;1.498;2023-08-08T06:01:02;100080.56;;;-143.46;nan
80294;BME280;69594;43.516;1.498;2023-08-08T06:03:32;76911.81;;;-143.46;nan
80294;BME280;69594;43.516;1.498;2023-08-08T06:05:59;76724.56;;;-143.46;nan
80294;BME280;69594;43.516;1.498;2023-08-08T06:08:24;76824.19;;;-143.46;nan
80294;BME280;69594;43.516;1.498;2023-08-08T06:10:51;76786.63;;;-143.46;nan
80294;BME280;69594;43.516;1.498;2023-08-08T06:13:17;76396.56;;;-143.46;nan
80294;BME280;69594;43.516;1.498;2023-08-08T06:15:42;100152.75;;;-143.46;nan
80294;BME280;69594;43.516;1.498;2023-08-08T06:18:08;100128.19;;;-143.46;nan
80294;BME280;69594;43.516;1.498;2023-08-08T06:20:34;76557.88;;;-143.46;nan
80294;BME280;69594;43.516;1.498;2023-08-08T06:23:00;76396.56;;;-143.46;nan
80294;BME280;69594;43.516;1.498;2023-08-08T06:25:25;100119.44;;;-143.46;nan
80294;BME280;69594;43.516;1.498;2023-08-08T06:27:50;76396.56;;;-143.46;nan
80294;BME280;69594;43.516;1.498;2023-08-08T06:30:16;76437.38;;;-143.46;nan
80294;BME280;69594;43.516;1.498;2023-08-08T06:32:42;76527.88;;;-143.46;nan
80294;BME280;69594;43.516;1.498;2023-08-08T06:35:07;76456.94;;;-143.46;nan
80294;BME280;69594;43.516;1.498;2023-08-08T06:37:33;100063.88;;;-143.46;nan
80294;BME280;69594;43.516;1.498;2023-08-08T06:39:58;100100.47;;;20.09;nan
80294;BME280;69594;43.516;1.498;2023-08-08T06:42:24;100131.47;;;-143.46;nan
80294;BME280;69594;43.516;1.498;2023-08-08T06:44:49;100102.28;;;-143.46;nan
80294;BME280;69594;43.516;1.498;2023-08-08T06:47:15;100081.84;;;-143.46;nan
80294;BME280;69594;43.516;1.498;2023-08-08T06:49:40;100127.50;;;21.15;nan
80294;BME280;69594;43.516;1.498;2023-08-08T06:52:06;100139.00;;;-143.46;nan
80294;BME280;69594;43.516;1.498;2023-08-08T06:54:32;76281.69;;;-143.46;nan
80294;BME280;69594;43.516;1.498;2023-08-08T06:57:01;76285.84;;;-143.46;nan
80294;BME280;69594;43.516;1.498;2023-08-08T06:59:27;75862.47;;;-144.76;nan
80294;BME280;69594;43.516;1.498;2023-08-08T07:01:53;100161.81;;;-144.76;nan
80294;BME280;69594;43.516;1.498;2023-08-08T07:04:18;100133.66;;;22.00;nan
80294;BME280;69594;43.516;1.498;2023-08-08T07:06:44;100139.31;;;-143.46;nan
80294;BME280;69594;43.516;1.498;2023-08-08T07:09:10;100134.53;;;22.34;nan
80294;BME280;69594;43.516;1.498;2023-08-08T07:11:39;100132.53;;;22.31;nan
80294;BME280;69594;43.516;1.498;2023-08-08T07:14:04;100137.38;;;22.71;nan
80294;BME280;69594;43.516;1.498;2023-08-08T07:16:30;100136.09;;;22.99;nan
80294;BME280;69594;43.516;1.498;2023-08-08T07:18:55;100128.00;;;23.24;nan
80294;BME280;69594;43.516;1.498;2023-08-08T07:21:20;100126.59;;;23.44;nan
80294;BME280;69594;43.516;1.498;2023-08-08T07:23:46;100126.13;;;23.38;nan
80294;BME280;69594;43.516;1.498;2023-08-08T07:26:11;100123.22;;;23.68;nan
80294;BME280;69594;43.516;1.498;2023-08-08T07:28:37;100122.66;;;24.00;nan
80294;BME280;69594;43.516;1.498;2023-08-08T07:31:02;100121.25;;;24.31;nan
80294;BME280;69594;43.516;1.498;2023-08-08T07:33:28;100131.66;;;24.48;nan
80294;BME280;69594;43.516;1.498;2023-08-08T07:35:53;75862.47;;;-143.46;nan
80294;BME280;69594;43.516;1.498;2023-08-08T07:38:19;100120.97;;;24.61;nan
80294;BME280;69594;43.516;1.498;2023-08-08T07:40:44;100127.38;;;24.72;nan
80294;BME280;69594;43.516;1.498;2023-08-08T07:43:12;100123.81;;;24.86;nan
80294;BME280;69594;43.516;1.498;2023-08-08T07:45:37;100137.84;;;25.18;nan
80294;BME280;69594;43.516;1.498;2023-08-08T07:48:04;100116.78;;;25.28;nan
80294;BME280;69594;43.516;1.498;2023-08-08T07:50:30;100133.09;;;25.50;nan
80294;BME280;69594;43.516;1.498;2023-08-08T07:52:56;100116.78;;;25.74;nan
80294;BME280;69594;43.516;1.498;2023-08-08T07:55:21;100112.38;;;25.73;nan
80294;BME280;69594;43.516;1.498;2023-08-08T07:57:47;100129.09;;;25.87;nan
80294;BME280;69594;43.516;1.498;2023-08-08T08:00:13;100109.94;;;25.93;nan
80294;BME280;69594;43.516;1.498;2023-08-08T08:02:40;100134.22;;;26.21;nan
80294;BME280;69594;43.516;1.498;2023-08-08T08:05:06;100112.63;;;26.28;nan
80294;BME280;69594;43.516;1.498;2023-08-08T08:07:34;100118.19;;;26.46;nan
80294;BME280;69594;43.516;1.498;2023-08-08T08:10:00;100127.72;;;26.59;nan
80294;BME280;69594;43.516;1.498;2023-08-08T08:12:26;100120.91;;;26.60;nan
80294;BME280;69594;43.516;1.498;2023-08-08T08:14:52;100115.63;;;26.80;nan
80294;BME280;69594;43.516;1.498;2023-08-08T08:17:17;100111.59;;;26.85;nan
80294;BME280;69594;43.516;1.498;2023-08-08T08:19:42;100105.06;;;27.09;nan
80294;BME280;69594;43.516;1.498;2023-08-08T08:22:08;100098.75;;;26.94;nan
80294;BME280;69594;43.516;1.498;2023-08-08T08:24:33;100093.97;;;26.98;nan
80294;BME280;69594;43.516;1.498;2023-08-08T08:26:59;100091.84;;;27.13;nan
80294;BME280;69594;43.516;1.498;2023-08-08T08:29:24;100094.91;;;27.33;nan
80294;BME280;69594;43.516;1.498;2023-08-08T08:31:50;100091.53;;;27.52;nan
80294;BME280;69594;43.516;1.498;2023-08-08T08:34:16;100097.94;;;27.53;nan
80294;BME280;69594;43.516;1.498;2023-08-08T08:36:43;100081.81;;;27.67;nan
80294;BME280;69594;43.516;1.498;2023-08-08T08:39:08;100104.81;;;27.89;nan
80294;BME280;69594;43.516;1.498;2023-08-08T08:41:35;100100.25;;;28.02;nan
80294;BME280;69594;43.516;1.498;2023-08-08T08:44:03;100093.34;;;28.11;nan
80294;BME280;69594;43.516;1.498;2023-08-08T08:46:30;100098.03;;;28.21;nan
80294;BME280;69594;43.516;1.498;2023-08-08T08:48:58;100100.53;;;28.12;nan
80294;BME280;69594;43.516;1.498;2023-08-08T08:51:25;100099.91;;;27.97;nan
80294;BME280;69594;43.516;1.498;2023-08-08T08:53:51;100101.38;;;27.71;nan
80294;BME280;69594;43.516;1.498;2023-08-08T08:56:16;100103.16;;;27.95;nan
80294;BME280;69594;43.516;1.498;2023-08-08T08:58:42;100102.88;;;28.17;nan
80294;BME280;69594;43.516;1.498;2023-08-08T09:01:08;100138.81;;;28.29;nan
80294;BME280;69594;43.516;1.498;2023-08-08T09:03:35;100136.34;;;28.35;nan
80294;BME280;69594;43.516;1.498;2023-08-08T09:06:01;100097.13;;;28.35;nan
80294;BME280;69594;43.516;1.498;2023-08-08T09:08:26;100122.75;;;28.33;nan
80294;BME280;69594;43.516;1.498;2023-08-08T09:10:52;100130.66;;;28.42;nan
80294;BME280;69594;43.516;1.498;2023-08-08T09:13:18;100088.94;;;28.47;nan
80294;BME280;69594;43.516;1.498;2023-08-08T09:15:47;100089.94;;;28.60;nan
80294;BME280;69594;43.516;1.498;2023-08-08T09:18:12;100115.59;;;28.62;nan
80294;BME280;69594;43.516;1.498;2023-08-08T09:20:38;100127.97;;;28.65;nan
80294;BME280;69594;43.516;1.498;2023-08-08T09:23:03;100106.91;;;28.80;nan
80294;BME280;69594;43.516;1.498;2023-08-08T09:25:32;100110.50;;;28.81;nan
80294;BME280;69594;43.516;1.498;2023-08-08T09:27:58;100093.78;;;28.74;nan
80294;BME280;69594;43.516;1.498;2023-08-08T09:30:23;100107.69;;;28.84;nan
80294;BME280;69594;43.516;1.498;2023-08-08T09:32:49;100106.28;;;28.96;nan
80294;BME280;69594;43.516;1.498;2023-08-08T09:35:15;100111.47;;;28.98;nan
80294;BME280;69594;43.516;1.498;2023-08-08T09:37:40;100113.22;;;28.88;nan
80294;BME280;69594;43.516;1.498;2023-08-08T09:40:11;100099.94;;;28.92;nan
80294;BME280;69594;43.516;1.498;2023-08-08T09:42:39;100097.31;;;28.78;nan
80294;BME280;69594;43.516;1.498;2023-08-08T09:45:05;100087.69;;;28.79;nan
80294;BME280;69594;43.516;1.498;2023-08-08T09:47:31;100112.63;;;28.73;nan
80294;BME280;69594;43.516;1.498;2023-08-08T09:49:59;100103.22;;;28.87;nan
80294;BME280;69594;43.516;1.498;2023-08-08T09:52:27;100106.72;;;28.94;nan
80294;BME280;69594;43.516;1.498;2023-08-08T09:54:53;100102.13;;;29.08;nan
80294;BME280;69594;43.516;1.498;2023-08-08T09:57:19;100111.34;;;29.08;nan
80294;BME280;69594;43.516;1.498;2023-08-08T09:59:45;100105.56;;;28.92;nan
80294;BME280;69594;43.516;1.498;2023-08-08T10:02:14;100098.34;;;28.91;nan
80294;BME280;69594;43.516;1.498;2023-08-08T10:04:41;100097.00;;;29.03;nan
80294;BME280;69594;43.516;1.498;2023-08-08T10:07:07;100095.44;;;28.98;nan
80294;BME280;69594;43.516;1.498;2023-08-08T10:09:33;100094.38;;;28.88;nan
80294;BME280;69594;43.516;1.498;2023-08-08T10:11:59;100115.69;;;28.82;nan
80294;BME280;69594;43.516;1.498;2023-08-08T10:14:32;100103.41;;;28.73;nan
80294;BME280;69594;43.516;1.498;2023-08-08T10:16:58;100085.47;;;28.67;nan
80294;BME280;69594;43.516;1.498;2023-08-08T10:19:25;100093.47;;;28.68;nan
80294;BME280;69594;43.516;1.498;2023-08-08T10:21:59;100093.50;;;28.64;nan
80294;BME280;69594;43.516;1.498;2023-08-08T10:24:36;100093.75;;;28.47;nan
80294;BME280;69594;43.516;1.498;2023-08-08T10:27:03;100076.41;;;28.25;nan
80294;BME280;69594;43.516;1.498;2023-08-08T10:29:32;100092.09;;;28.15;nan
80294;BME280;69594;43.516;1.498;2023-08-08T10:32:05;100101.59;;;27.87;nan
80294;BME280;69594;43.516;1.498;2023-08-08T10:34:44;100102.06;;;27.82;nan
80294;BME280;69594;43.516;1.498;2023-08-08T10:37:13;100100.72;;;27.97;nan
80294;BME280;69594;43.516;1.498;2023-08-08T10:39:57;100085.28;;;27.79;nan
80294;BME280;69594;43.516;1.498;2023-08-08T10:42:24;100088.25;;;27.64;nan
80294;BME280;69594;43.516;1.498;2023-08-08T10:44:52;100056.84;;;27.39;nan
80294;BME280;69594;43.516;1.498;2023-08-08T10:47:30;100075.53;;;27.49;nan
80294;BME280;69594;43.516;1.498;2023-08-08T10:50:15;100067.06;;;27.63;nan
80294;BME280;69594;43.516;1.498;2023-08-08T10:52:53;100090.63;;;27.66;nan
80294;BME280;69594;43.516;1.498;2023-08-08T10:55:22;100073.84;;;27.66;nan
80294;BME280;69594;43.516;1.498;2023-08-08T10:57:56;100055.16;;;27.49;nan
80294;BME280;69594;43.516;1.498;2023-08-08T11:00:25;100055.59;;;27.44;nan
80294;BME280;69594;43.516;1.498;2023-08-08T11:02:53;100063.63;;;27.41;nan
80294;BME280;69594;43.516;1.498;2023-08-08T11:05:22;100048.16;;;27.30;nan
80294;BME280;69594;43.516;1.498;2023-08-08T11:07:48;100067.63;;;27.40;nan
80294;BME280;69594;43.516;1.498;2023-08-08T11:10:14;100040.44;;;27.41;nan
80294;BME280;69594;43.516;1.498;2023-08-08T11:12:39;100045.16;;;27.48;nan
80294;BME280;69594;43.516;1.498;2023-08-08T11:15:06;100040.44;;;27.41;nan
80294;BME280;69594;43.516;1.498;2023-08-08T11:17:32;100047.91;;;27.55;nan
80294;BME280;69594;43.516;1.498;2023-08-08T11:19:58;100026.69;;;27.57;nan
80294;BME280;69594;43.516;1.498;2023-08-08T11:22:23;100027.28;;;27.38;nan
80294;BME280;69594;43.516;1.498;2023-08-08T11:24:49;100018.91;;;27.34;nan
80294;BME280;69594;43.516;1.498;2023-08-08T11:27:17;100038.44;;;27.41;nan
80294;BME280;69594;43.516;1.498;2023-08-08T11:29:50;100036.00;;;27.44;nan
80294;BME280;69594;43.516;1.498;2023-08-08T11:32:16;100040.34;;;27.52;nan
80294;BME280;69594;43.516;1.498;2023-08-08T11:34:41;100016.41;;;27.44;nan
80294;BME280;69594;43.516;1.498;2023-08-08T11:37:08;100022.69;;;27.58;nan
80294;BME280;69594;43.516;1.498;2023-08-08T11:39:33;100024.03;;;27.43;nan
80294;BME280;69594;43.516;1.498;2023-08-08T11:41:59;100012.81;;;27.43;nan
80294;BME280;69594;43.516;1.498;2023-08-08T11:44:25;100006.41;;;27.46;nan
80294;BME280;69594;43.516;1.498;2023-08-08T11:46:51;99999.75;;;27.33;nan
80294;BME280;69594;43.516;1.498;2023-08-08T11:49:17;99999.94;;;27.12;nan
80294;BME280;69594;43.516;1.498;2023-08-08T11:51:43;100015.44;;;27.23;nan
80294;BME280;69594;43.516;1.498;2023-08-08T11:54:09;99995.53;;;27.14;nan
80294;BME280;69594;43.516;1.498;2023-08-08T11:56:35;99994.13;;;27.33;nan
80294;BME280;69594;43.516;1.498;2023-08-08T11:59:02;99994.09;;;27.36;nan
80294;BME280;69594;43.516;1.498;2023-08-08T12:01:28;99998.53;;;27.34;nan
80294;BME280;69594;43.516;1.498;2023-08-08T12:03:56;99993.31;;;27.36;nan
80294;BME280;69594;43.516;1.498;2023-08-08T12:06:21;99990.94;;;27.34;nan
80294;BME280;69594;43.516;1.498;2023-08-08T12:08:49;99995.63;;;27.45;nan
80294;BME280;69594;43.516;1.498;2023-08-08T12:11:15;99977.97;;;27.51;nan
80294;BME280;69594;43.516;1.498;2023-08-08T12:13:42;100002.72;;;27.56;nan
80294;BME280;69594;43.516;1.498;2023-08-08T12:16:13;99983.94;;;27.53;nan
80294;BME280;69594;43.516;1.498;2023-08-08T12:18:40;99983.94;;;27.53;nan
80294;BME280;69594;43.516;1.498;2023-08-08T12:21:09;99994.34;;;27.53;nan
80294;BME280;69594;43.516;1.498;2023-08-08T12:23:35;99973.91;;;27.56;nan
80294;BME280;69594;43.516;1.498;2023-08-08T12:26:05;99965.97;;;27.51;nan
80294;BME280;69594;43.516;1.498;2023-08-08T12:28:31;99959.16;;;27.52;nan
80294;BME280;69594;43.516;1.498;2023-08-08T12:30:56;99963.88;;;27.62;nan
80294;BME280;69594;43.516;1.498;2023-08-08T12:33:22;99992.63;;;27.66;nan
80294;BME280;69594;43.516;1.498;2023-08-08T12:35:48;99965.28;;;27.77;nan
80294;BME280;69594;43.516;1.498;2023-08-08T12:38:15;99962.84;;;27.79;nan
80294;BME280;69594;43.516;1.498;2023-08-08T12:40:41;99953.97;;;27.88;nan
80294;BME280;69594;43.516;1.498;2023-08-08T12:43:08;99949.91;;;27.92;nan
80294;BME280;69594;43.516;1.498;2023-08-08T12:45:35;99945.03;;;27.96;nan
80294;BME280;69594;43.516;1.498;2023-08-08T12:48:01;99939.97;;;27.88;nan
80294;BME280;69594;43.516;1.498;2023-08-08T12:50:27;99957.09;;;27.93;nan
80294;BME280;69594;43.516;1.498;2023-08-08T12:52:53;99947.78;;;28.00;nan
80294;BME280;69594;43.516;1.498;2023-08-08T12:55:19;99939.81;;;27.98;nan
80294;BME280;69594;43.516;1.498;2023-08-08T12:57:44;99937.00;;;27.98;nan
80294;BME280;69594;43.516;1.498;2023-08-08T13:00:10;99940.09;;;28.08;nan
80294;BME280;69594;43.516;1.498;2023-08-08T13:02:38;99950.44;;;28.11;nan
80294;BME280;69594;43.516;1.498;2023-08-08T13:05:04;99939.66;;;28.09;nan
80294;BME280;69594;43.516;1.498;2023-08-08T13:07:32;99935.97;;;28.16;nan
80294;BME280;69594;43.516;1.498;2023-08-08T13:09:57;99938.69;;;28.19;nan
80294;BME280;69594;43.516;1.498;2023-08-08T13:12:22;99914.69;;;28.18;nan
80294;BME280;69594;43.516;1.498;2023-08-08T13:14:48;99919.41;;;28.28;nan
80294;BME280;69594;43.516;1.498;2023-08-08T13:17:14;99918.63;;;28.28;nan
80294;BME280;69594;43.516;1.498;2023-08-08T13:19:39;99924.97;;;28.32;nan
80294;BME280;69594;43.516;1.498;2023-08-08T13:22:05;99924.06;;;28.39;nan
80294;BME280;69594;43.516;1.498;2023-08-08T13:24:30;99912.03;;;28.38;nan
80294;BME280;69594;43.516;1.498;2023-08-08T13:26:56;99902.41;;;28.39;nan
80294;BME280;69594;43.516;1.498;2023-08-08T13:29:21;99936.13;;;28.36;nan